Time;durP1;ratioP1;P1;durP2;ratioP2;P2;SDS_P1;SDS_P2;PMS_P1;PMS_P2;Temp;Humidity;BMP_temperature;BMP_pressure;BME280_temperature;BME280_humidity;BME280_pressure;Samples;Min_cycle;Max_cycle;Signal;HPM_P1;HPM_P2
2021/04/25 00:01:39;;;;;;;;;;;18.30;48.60;;;;;;5042946;28;19916;-67
2021/04/25 00:04:05;;;;;;;;;;;18.30;48.60;;;;;;5042563;28;19959;-67
2021/04/25 00:06:30;;;;;;;;;;;18.30;48.70;;;;;;5042582;28;19917;-67
2021/04/25 00:08:56;;;;;;;;;;;18.30;48.60;;;;;;5042473;28;19916;-68
2021/04/25 00:11:21;;;;;;;;;;;18.30;48.60;;;;;;5042305;28;20302;-67
2021/04/25 00:13:47;;;;;;;;;;;18.30;48.50;;;;;;5042631;28;19944;-68
2021/04/25 00:16:14;;;;;;;;;;;18.30;48.50;;;;;;5042362;28;19920;-67
2021/04/25 00:18:39;;;;;;;;;;;18.30;48.50;;;;;;5024786;28;19923;-65
2021/04/25 00:21:05;;;;;;;;;;;18.30;48.50;;;;;;5041468;28;20749;-66
2021/04/25 00:23:30;;;;;;;;;;;18.30;48.40;;;;;;5040787;28;19924;-67
2021/04/25 00:25:56;;;;;;;;;;;18.30;48.30;;;;;;5041499;28;19943;-67
2021/04/25 00:28:22;;;;;;;;;;;18.30;48.30;;;;;;5041820;28;19966;-68
2021/04/25 00:30:47;;;;;;;;;;;18.30;48.30;;;;;;5015315;28;20460;-66
2021/04/25 00:33:13;;;;;;;;;;;18.30;48.20;;;;;;5045125;28;19920;-64
2021/04/25 00:35:38;;;;;;;;;;;18.30;48.20;;;;;;5043319;28;19917;-67
2021/04/25 00:38:03;;;;;;;;;;;18.30;48.20;;;;;;5042136;28;19924;-67
2021/04/25 00:40:29;;;;;;;;;;;18.30;48.20;;;;;;5041933;28;21257;-67
2021/04/25 00:42:54;;;;;;;;;;;18.30;48.20;;;;;;5043125;28;19917;-67
2021/04/25 00:45:20;;;;;;;;;;;18.30;48.10;;;;;;5046235;28;19936;-67
2021/04/25 00:47:46;;;;;;;;;;;18.30;48.10;;;;;;5045843;28;19979;-66
2021/04/25 00:50:12;;;;;;;;;;;18.30;48.00;;;;;;5045580;28;19917;-66
2021/04/25 00:52:41;;;;;;;;;;;18.30;48.10;;;;;;5045289;28;20322;-66
2021/04/25 00:55:07;;;;;;;;;;;18.30;48.00;;;;;;5046075;28;19921;-67
2021/04/25 00:57:32;;;;;;;;;;;18.30;48.10;;;;;;5026322;28;20413;-65
2021/04/25 00:59:58;;;;;;;;;;;18.30;48.00;;;;;;5045941;28;19924;-66
2021/04/25 01:02:23;;;;;;;;;;;18.30;48.00;;;;;;5045870;28;19917;-65
2021/04/25 01:04:48;;;;;;;;;;;18.30;48.00;;;;;;5046011;28;19921;-66
2021/04/25 01:07:14;;;;;;;;;;;18.30;47.90;;;;;;5044987;28;19917;-67
2021/04/25 01:09:41;;;;;;;;;;;18.30;47.90;;;;;;5045453;28;19925;-68
2021/04/25 01:12:06;;;;;;;;;;;18.30;47.90;;;;;;5008654;28;19921;-67
2021/04/25 01:14:31;;;;;;;;;;;18.30;47.80;;;;;;5043476;28;19924;-68
2021/04/25 01:16:57;;;;;;;;;;;18.30;47.90;;;;;;5045519;28;19931;-68
2021/04/25 01:19:22;;;;;;;;;;;18.30;47.80;;;;;;5045345;28;19920;-67
2021/04/25 01:21:48;;;;;;;;;;;18.30;47.80;;;;;;5045058;28;20406;-66
2021/04/25 01:24:13;;;;;;;;;;;18.30;47.70;;;;;;5044669;28;19952;-67
2021/04/25 01:26:39;;;;;;;;;;;18.30;47.70;;;;;;5045558;28;19924;-67
2021/04/25 01:29:04;;;;;;;;;;;18.30;47.70;;;;;;5045482;28;19917;-67
2021/04/25 01:31:30;;;;;;;;;;;18.30;47.80;;;;;;5045259;28;20560;-68
2021/04/25 01:33:55;;;;;;;;;;;18.30;47.80;;;;;;5044953;28;19917;-67
2021/04/25 01:36:20;;;;;;;;;;;18.30;47.80;;;;;;5044419;28;20489;-67
2021/04/25 01:38:46;;;;;;;;;;;18.30;47.60;;;;;;5044809;28;19921;-67
2021/04/25 01:41:11;;;;;;;;;;;18.30;47.60;;;;;;5044709;28;19948;-68
2021/04/25 01:43:37;;;;;;;;;;;18.20;47.60;;;;;;5045648;28;20365;-67
2021/04/25 01:46:02;;;;;;;;;;;18.20;47.50;;;;;;5044796;28;19923;-67
2021/04/25 01:48:28;;;;;;;;;;;18.20;47.50;;;;;;5044798;28;19925;-67
2021/04/25 01:50:53;;;;;;;;;;;18.20;47.50;;;;;;5044349;28;20473;-66
2021/04/25 01:53:18;;;;;;;;;;;18.20;47.50;;;;;;5044754;28;19924;-65
2021/04/25 01:55:44;;;;;;;;;;;18.30;47.50;;;;;;5050448;28;19917;-67
2021/04/25 01:58:09;;;;;;;;;;;18.20;47.50;;;;;;5044606;28;19951;-68
2021/04/25 02:00:39;;;;;;;;;;;18.20;47.50;;;;;;5045118;28;20452;-66
2021/04/25 02:03:07;;;;;;;;;;;18.20;47.50;;;;;;5045006;28;19943;-66
2021/04/25 02:05:33;;;;;;;;;;;18.20;47.50;;;;;;5044293;28;19951;-67
2021/04/25 02:07:58;;;;;;;;;;;18.20;47.40;;;;;;5044415;28;20657;-67
2021/04/25 02:10:24;;;;;;;;;;;18.20;47.40;;;;;;5044030;28;20032;-66
2021/04/25 02:12:49;;;;;;;;;;;18.20;47.40;;;;;;5044779;28;19967;-67
2021/04/25 02:15:15;;;;;;;;;;;18.20;47.50;;;;;;5044215;28;19927;-67
2021/04/25 02:17:42;;;;;;;;;;;18.20;47.40;;;;;;5043884;28;20007;-67
2021/04/25 02:20:08;;;;;;;;;;;18.20;47.40;;;;;;5044833;28;19920;-69
2021/04/25 02:22:33;;;;;;;;;;;18.20;47.40;;;;;;5044242;28;19920;-66
2021/04/25 02:24:59;;;;;;;;;;;18.20;47.40;;;;;;5043961;28;19943;-66
2021/04/25 02:27:24;;;;;;;;;;;18.20;47.40;;;;;;5044280;28;20550;-67
2021/04/25 02:29:50;;;;;;;;;;;18.20;47.40;;;;;;5044317;28;19929;-67
2021/04/25 02:32:15;;;;;;;;;;;18.10;47.40;;;;;;5043682;28;19929;-66
2021/04/25 02:34:41;;;;;;;;;;;18.20;47.40;;;;;;5043548;28;19924;-67
2021/04/25 02:37:06;;;;;;;;;;;18.10;47.40;;;;;;5043664;28;20522;-66
2021/04/25 02:39:31;;;;;;;;;;;18.10;47.30;;;;;;5043520;28;19917;-67
2021/04/25 02:41:57;;;;;;;;;;;18.20;47.40;;;;;;5043661;28;19916;-67
2021/04/25 02:44:22;;;;;;;;;;;18.10;47.40;;;;;;5043771;28;19947;-68
2021/04/25 02:46:48;;;;;;;;;;;18.10;47.40;;;;;;5043256;28;20342;-67
2021/04/25 02:49:13;;;;;;;;;;;18.10;47.40;;;;;;5042908;28;19956;-67
2021/04/25 02:51:39;;;;;;;;;;;18.10;47.40;;;;;;5043437;28;19924;-67
2021/04/25 02:54:04;;;;;;;;;;;18.10;47.40;;;;;;5044213;28;19971;-67
2021/04/25 02:56:30;;;;;;;;;;;18.10;47.40;;;;;;5042624;28;19917;-67
2021/04/25 02:58:55;;;;;;;;;;;18.10;47.40;;;;;;5043685;28;20551;-67
2021/04/25 03:01:20;;;;;;;;;;;18.10;47.40;;;;;;5043350;28;19925;-67
2021/04/25 03:03:46;;;;;;;;;;;18.10;47.40;;;;;;5048979;28;19921;-67
2021/04/25 03:06:11;;;;;;;;;;;18.10;47.40;;;;;;5045725;28;20000;-67
2021/04/25 03:08:37;;;;;;;;;;;18.10;47.40;;;;;;5044018;28;19923;-67
2021/04/25 03:11:02;;;;;;;;;;;18.10;47.40;;;;;;5044323;28;19920;-67
2021/04/25 03:13:28;;;;;;;;;;;18.10;47.40;;;;;;5043717;28;20737;-66
2021/04/25 03:15:53;;;;;;;;;;;18.10;47.40;;;;;;5043994;28;19924;-65
2021/04/25 03:18:19;;;;;;;;;;;18.10;47.40;;;;;;5043317;28;19921;-65
2021/04/25 03:20:44;;;;;;;;;;;18.10;47.40;;;;;;5043533;28;19921;-66
2021/04/25 03:23:10;;;;;;;;;;;18.10;47.40;;;;;;5043281;28;19917;-66
2021/04/25 03:25:35;;;;;;;;;;;18.10;47.40;;;;;;5043281;28;20430;-67
2021/04/25 03:28:01;;;;;;;;;;;18.10;47.40;;;;;;5042765;28;19917;-67
2021/04/25 03:30:26;;;;;;;;;;;18.00;47.40;;;;;;5042640;28;19917;-67
2021/04/25 03:32:52;;;;;;;;;;;18.10;47.50;;;;;;5042906;28;19921;-67
2021/04/25 03:35:17;;;;;;;;;;;18.00;47.40;;;;;;5043429;28;19939;-66
2021/04/25 03:37:42;;;;;;;;;;;18.00;47.50;;;;;;5041814;28;20351;-65
2021/04/25 03:40:09;;;;;;;;;;;18.00;47.50;;;;;;5043972;28;19921;-66
2021/04/25 03:42:34;;;;;;;;;;;18.00;47.50;;;;;;5043429;28;19921;-67
2021/04/25 03:45:00;;;;;;;;;;;18.00;47.50;;;;;;5043390;28;19916;-67
2021/04/25 03:47:25;;;;;;;;;;;18.00;47.50;;;;;;5042146;28;19924;-66
2021/04/25 03:49:51;;;;;;;;;;;18.00;47.50;;;;;;5042371;28;19928;-67
2021/04/25 03:52:16;;;;;;;;;;;18.00;47.60;;;;;;5042492;28;20609;-67
2021/04/25 03:54:42;;;;;;;;;;;18.00;47.60;;;;;;5042750;28;19917;-67
2021/04/25 03:57:07;;;;;;;;;;;18.00;47.50;;;;;;5043407;28;19917;-67
2021/04/25 03:59:33;;;;;;;;;;;18.00;47.60;;;;;;5042711;28;20004;-67
2021/04/25 04:01:58;;;;;;;;;;;18.00;47.50;;;;;;5041814;28;19931;-67
2021/04/25 04:04:24;;;;;;;;;;;18.00;47.50;;;;;;5043053;28;20002;-67
2021/04/25 04:06:49;;;;;;;;;;;18.00;47.50;;;;;;5042512;28;19927;-67
2021/04/25 04:09:17;;;;;;;;;;;18.00;47.60;;;;;;5042601;28;19946;-67
2021/04/25 04:11:42;;;;;;;;;;;18.00;47.60;;;;;;5035177;28;19916;-68
2021/04/25 04:14:08;;;;;;;;;;;17.90;47.60;;;;;;5043161;28;19913;-67
2021/04/25 04:16:33;;;;;;;;;;;17.90;47.60;;;;;;5041933;28;19917;-67
2021/04/25 04:18:59;;;;;;;;;;;18.00;47.70;;;;;;5045109;28;19929;-67
2021/04/25 04:21:24;;;;;;;;;;;17.90;47.70;;;;;;5046492;28;19964;-68
2021/04/25 04:23:49;;;;;;;;;;;17.90;47.60;;;;;;5046621;28;20289;-67
2021/04/25 04:26:15;;;;;;;;;;;17.90;48.30;;;;;;5046182;28;19912;-67
2021/04/25 04:28:41;;;;;;;;;;;17.90;47.70;;;;;;5046253;28;19983;-67
2021/04/25 04:31:06;;;;;;;;;;;17.90;47.70;;;;;;5047212;28;19939;-67
2021/04/25 04:33:32;;;;;;;;;;;17.90;47.70;;;;;;5046643;28;19924;-67
2021/04/25 04:35:57;;;;;;;;;;;17.90;47.70;;;;;;5047068;28;19912;-68
2021/04/25 04:38:23;;;;;;;;;;;17.90;47.70;;;;;;5045621;28;19921;-67
2021/04/25 04:40:48;;;;;;;;;;;17.90;47.70;;;;;;5046827;28;20506;-68
2021/04/25 04:43:13;;;;;;;;;;;17.90;47.70;;;;;;5046360;28;19924;-67
2021/04/25 04:45:39;;;;;;;;;;;17.90;47.70;;;;;;5047087;28;19917;-70
2021/04/25 04:48:04;;;;;;;;;;;17.90;47.80;;;;;;5028531;28;20782;-67
2021/04/25 04:50:30;;;;;;;;;;;17.90;47.80;;;;;;5045679;28;19975;-66
2021/04/25 04:52:55;;;;;;;;;;;17.90;47.80;;;;;;5046110;28;19921;-67
2021/04/25 04:55:21;;;;;;;;;;;17.90;47.80;;;;;;5046802;28;19924;-67
2021/04/25 04:57:46;;;;;;;;;;;18.00;47.80;;;;;;5045519;28;19921;-67
2021/04/25 05:00:12;;;;;;;;;;;17.90;47.80;;;;;;5045908;28;19917;-68
2021/04/25 05:02:37;;;;;;;;;;;17.90;47.80;;;;;;5027061;28;19917;-66
2021/04/25 05:05:04;;;;;;;;;;;17.90;47.80;;;;;;5045610;28;19920;-67
2021/04/25 05:07:29;;;;;;;;;;;17.90;47.90;;;;;;5045604;28;19932;-67
2021/04/25 05:09:55;;;;;;;;;;;17.90;47.90;;;;;;5045297;28;19925;-67
2021/04/25 05:12:20;;;;;;;;;;;17.90;47.90;;;;;;5044072;28;19929;-67
2021/04/25 05:14:45;;;;;;;;;;;17.90;48.50;;;;;;5045001;28;19956;-67
2021/04/25 05:17:11;;;;;;;;;;;17.90;47.90;;;;;;5045527;28;19917;-68
2021/04/25 05:19:36;;;;;;;;;;;17.90;47.90;;;;;;5045833;28;19916;-68
2021/04/25 05:22:02;;;;;;;;;;;17.80;47.80;;;;;;5027628;28;19923;-67
2021/04/25 05:24:27;;;;;;;;;;;17.80;47.90;;;;;;5045888;28;20383;-67
2021/04/25 05:26:53;;;;;;;;;;;17.90;47.90;;;;;;5045700;28;19913;-69
2021/04/25 05:29:18;;;;;;;;;;;17.90;48.00;;;;;;5045238;28;19919;-68
2021/04/25 05:31:44;;;;;;;;;;;17.80;48.00;;;;;;5045876;28;19925;-68
2021/04/25 05:34:10;;;;;;;;;;;17.80;48.00;;;;;;5043701;28;19917;-69
2021/04/25 05:36:35;;;;;;;;;;;17.90;48.00;;;;;;5045825;28;20401;-67
2021/04/25 05:39:01;;;;;;;;;;;17.80;48.00;;;;;;5045213;28;19982;-67
2021/04/25 05:41:27;;;;;;;;;;;17.80;48.00;;;;;;5045317;28;19917;-67
2021/04/25 05:43:52;;;;;;;;;;;17.80;48.00;;;;;;5046748;28;19923;-67
2021/04/25 05:46:18;;;;;;;;;;;17.80;48.00;;;;;;5046827;28;19955;-67
2021/04/25 05:48:44;;;;;;;;;;;17.80;48.00;;;;;;5046693;28;20003;-67
2021/04/25 05:51:09;;;;;;;;;;;17.90;48.10;;;;;;5047865;28;19932;-67
2021/04/25 05:53:35;;;;;;;;;;;17.90;48.10;;;;;;5047238;28;21527;-67
2021/04/25 05:56:00;;;;;;;;;;;17.80;48.00;;;;;;5049388;28;19917;-66
2021/04/25 05:58:25;;;;;;;;;;;17.80;48.10;;;;;;5050123;28;19931;-67
2021/04/25 06:00:51;;;;;;;;;;;17.80;48.10;;;;;;5049004;28;20155;-67
2021/04/25 06:03:16;;;;;;;;;;;17.80;48.10;;;;;;5043130;28;19916;-68
2021/04/25 06:05:42;;;;;;;;;;;17.80;48.10;;;;;;5034133;28;20434;-66
2021/04/25 06:08:07;;;;;;;;;;;17.80;48.10;;;;;;5044837;28;19917;-64
2021/04/25 06:10:33;;;;;;;;;;;17.80;48.10;;;;;;5044536;28;19916;-67
2021/04/25 06:12:58;;;;;;;;;;;17.80;48.10;;;;;;5044359;28;19921;-67
2021/04/25 06:15:24;;;;;;;;;;;17.80;48.10;;;;;;5052692;28;19969;-67
2021/04/25 06:17:49;;;;;;;;;;;17.80;48.10;;;;;;5054069;28;20379;-67
2021/04/25 06:20:15;;;;;;;;;;;17.80;48.10;;;;;;5051083;28;19982;-67
2021/04/25 06:22:41;;;;;;;;;;;17.80;48.10;;;;;;5044206;28;20058;-68
2021/04/25 06:25:07;;;;;;;;;;;17.80;48.10;;;;;;5044254;28;19982;-67
2021/04/25 06:27:32;;;;;;;;;;;17.80;48.10;;;;;;5042669;28;19917;-67
2021/04/25 06:29:58;;;;;;;;;;;17.80;48.10;;;;;;5026593;28;20295;-67
2021/04/25 06:32:23;;;;;;;;;;;17.80;48.10;;;;;;5042802;28;19920;-67
2021/04/25 06:34:48;;;;;;;;;;;17.80;48.20;;;;;;5043114;28;19921;-67
2021/04/25 06:37:14;;;;;;;;;;;17.80;48.20;;;;;;5044157;28;20452;-67
2021/04/25 06:39:39;;;;;;;;;;;17.80;48.10;;;;;;5044154;28;19987;-66
2021/04/25 06:42:05;;;;;;;;;;;17.80;48.10;;;;;;5043077;28;19987;-68
2021/04/25 06:44:30;;;;;;;;;;;17.80;48.20;;;;;;5043665;28;20326;-68
2021/04/25 06:46:56;;;;;;;;;;;17.80;48.10;;;;;;5043674;28;19932;-69
2021/04/25 06:49:22;;;;;;;;;;;17.80;48.20;;;;;;5043366;28;19928;-67
2021/04/25 06:51:47;;;;;;;;;;;17.80;48.30;;;;;;5043879;28;20021;-67
2021/04/25 06:54:13;;;;;;;;;;;17.80;48.30;;;;;;5043231;28;19921;-67
2021/04/25 06:56:38;;;;;;;;;;;17.80;48.30;;;;;;5044557;28;19966;-69
2021/04/25 06:59:04;;;;;;;;;;;17.80;48.30;;;;;;5043959;28;19927;-68
2021/04/25 07:01:30;;;;;;;;;;;17.80;48.30;;;;;;5043307;28;20008;-65
2021/04/25 07:03:55;;;;;;;;;;;17.80;48.30;;;;;;5043254;28;19927;-68
2021/04/25 07:06:21;;;;;;;;;;;17.80;48.40;;;;;;5043866;28;19924;-66
2021/04/25 07:08:47;;;;;;;;;;;17.80;48.60;;;;;;5042742;28;20480;-66
2021/04/25 07:11:12;;;;;;;;;;;17.80;48.80;;;;;;5043973;28;20362;-64
2021/04/25 07:13:38;;;;;;;;;;;17.80;49.20;;;;;;5043899;28;19920;-64
2021/04/25 07:16:03;;;;;;;;;;;17.80;49.30;;;;;;5042986;28;20651;-68
2021/04/25 07:18:29;;;;;;;;;;;17.80;49.00;;;;;;5043098;28;19928;-67
2021/04/25 07:20:55;;;;;;;;;;;17.80;49.00;;;;;;5043284;28;19916;-68
2021/04/25 07:23:22;;;;;;;;;;;17.90;48.90;;;;;;5043162;28;19992;-68
2021/04/25 07:25:47;;;;;;;;;;;17.90;48.90;;;;;;5042974;28;19917;-67
2021/04/25 07:28:13;;;;;;;;;;;17.80;48.80;;;;;;5042962;28;19975;-67
2021/04/25 07:30:38;;;;;;;;;;;17.80;48.80;;;;;;5042623;28;19975;-68
2021/04/25 07:33:04;;;;;;;;;;;17.90;48.80;;;;;;5042767;28;19924;-67
2021/04/25 07:35:29;;;;;;;;;;;17.90;48.80;;;;;;5042910;28;20291;-69
2021/04/25 07:37:55;;;;;;;;;;;17.90;48.70;;;;;;5043316;28;19923;-69
2021/04/25 07:40:20;;;;;;;;;;;17.90;48.60;;;;;;5042922;28;19944;-68
2021/04/25 07:42:46;;;;;;;;;;;17.90;48.60;;;;;;5042476;28;20730;-68
2021/04/25 07:45:14;;;;;;;;;;;17.90;48.60;;;;;;5043322;28;19940;-68
2021/04/25 07:47:43;;;;;;;;;;;17.90;48.60;;;;;;5043272;28;19921;-68
2021/04/25 07:50:08;;;;;;;;;;;17.90;48.60;;;;;;5042827;28;19957;-67
2021/04/25 07:52:34;;;;;;;;;;;17.80;48.50;;;;;;5042534;28;19921;-66
2021/04/25 07:55:00;;;;;;;;;;;17.80;48.50;;;;;;5043467;28;19921;-67
2021/04/25 07:57:25;;;;;;;;;;;17.90;48.50;;;;;;5043384;28;19932;-68
2021/04/25 07:59:50;;;;;;;;;;;17.80;48.50;;;;;;5042966;28;19959;-67
2021/04/25 08:02:16;;;;;;;;;;;17.90;48.50;;;;;;5044438;28;19921;-68
2021/04/25 08:04:41;;;;;;;;;;;17.90;48.50;;;;;;5044160;28;20333;-67
2021/04/25 08:07:07;;;;;;;;;;;17.90;48.40;;;;;;5046465;28;19948;-66
2021/04/25 08:09:32;;;;;;;;;;;17.90;48.50;;;;;;5047553;28;19916;-67
2021/04/25 08:11:58;;;;;;;;;;;17.80;50.30;;;;;;5043861;28;20405;-67
2021/04/25 08:14:23;;;;;;;;;;;17.80;50.10;;;;;;5043076;28;19970;-67
2021/04/25 08:16:49;;;;;;;;;;;17.80;50.10;;;;;;5042899;28;19928;-68
2021/04/25 08:19:14;;;;;;;;;;;17.80;50.10;;;;;;5044062;28;20284;-68
2021/04/25 08:21:39;;;;;;;;;;;17.90;49.80;;;;;;5043794;28;19917;-68
2021/04/25 08:24:05;;;;;;;;;;;18.00;49.90;;;;;;5043696;28;19925;-67
2021/04/25 08:26:31;;;;;;;;;;;18.10;50.60;;;;;;5045280;28;19928;-68
2021/04/25 08:28:56;;;;;;;;;;;18.20;50.70;;;;;;5044013;28;19921;-68
2021/04/25 08:31:21;;;;;;;;;;;18.30;50.70;;;;;;5042779;28;19967;-70
2021/04/25 08:33:47;;;;;;;;;;;18.30;50.50;;;;;;5042632;28;19921;-68
2021/04/25 08:36:14;;;;;;;;;;;18.30;50.40;;;;;;5042498;28;19921;-68
2021/04/25 08:38:40;;;;;;;;;;;18.40;50.10;;;;;;5042950;28;19960;-68
2021/04/25 08:41:05;;;;;;;;;;;18.40;49.90;;;;;;5025076;28;19948;-66
2021/04/25 08:43:31;;;;;;;;;;;18.40;49.80;;;;;;5042628;28;19964;-66
2021/04/25 08:45:57;;;;;;;;;;;18.40;49.70;;;;;;5042781;28;20289;-66
2021/04/25 08:48:25;;;;;;;;;;;18.40;49.50;;;;;;5035823;28;19944;-66
2021/04/25 08:50:50;;;;;;;;;;;18.40;49.40;;;;;;5023587;28;19917;-67
2021/04/25 08:53:15;;;;;;;;;;;18.40;49.30;;;;;;5041704;28;20023;-68
2021/04/25 08:55:41;;;;;;;;;;;18.40;49.10;;;;;;5024507;28;19917;-67
2021/04/25 08:58:06;;;;;;;;;;;18.40;49.10;;;;;;5042106;28;20716;-64
2021/04/25 09:00:32;;;;;;;;;;;18.40;49.00;;;;;;5024233;28;20063;-67
2021/04/25 09:02:57;;;;;;;;;;;18.40;48.90;;;;;;5042171;28;19921;-67
2021/04/25 09:05:23;;;;;;;;;;;18.40;48.90;;;;;;5043967;28;19917;-67
2021/04/25 09:07:52;;;;;;;;;;;18.40;48.80;;;;;;5045480;28;19944;-67
2021/04/25 09:10:17;;;;;;;;;;;18.40;48.80;;;;;;5045560;28;19917;-67
2021/04/25 09:12:44;;;;;;;;;;;18.40;48.70;;;;;;5045439;28;20056;-67
2021/04/25 09:15:10;;;;;;;;;;;18.40;48.50;;;;;;5046257;28;19921;-67
2021/04/25 09:17:52;;;;;;;;;;;18.40;48.50;;;;;;5044610;28;20308;-67
2021/04/25 09:20:17;;;;;;;;;;;18.40;48.30;;;;;;5052814;28;19931;-67
2021/04/25 09:22:44;;;;;;;;;;;18.40;48.30;;;;;;5054161;28;19924;-67
2021/04/25 09:25:10;;;;;;;;;;;18.40;48.30;;;;;;5058228;28;19942;-66
2021/04/25 09:27:35;;;;;;;;;;;18.40;48.30;;;;;;5044665;28;19923;-67
2021/04/25 09:30:01;;;;;;;;;;;18.40;48.20;;;;;;5044607;28;19925;-67
2021/04/25 09:32:30;;;;;;;;;;;18.40;48.10;;;;;;5045240;28;19921;-67
2021/04/25 09:35:15;;;;;;;;;;;18.40;48.00;;;;;;5045019;28;19952;-67
2021/04/25 09:37:42;;;;;;;;;;;18.40;48.00;;;;;;5045634;28;20009;-67
2021/04/25 09:40:08;;;;;;;;;;;18.30;48.00;;;;;;5045529;28;19940;-67
2021/04/25 09:42:52;;;;;;;;;;;18.30;48.00;;;;;;5044787;28;19917;-67
2021/04/25 09:45:21;;;;;;;;;;;18.40;48.50;;;;;;5044686;28;19917;-69
2021/04/25 09:47:47;;;;;;;;;;;18.40;49.30;;;;;;5045053;28;19920;-68
2021/04/25 09:50:14;;;;;;;;;;;18.40;49.30;;;;;;5043997;28;19924;-69
2021/04/25 09:52:40;;;;;;;;;;;18.40;49.10;;;;;;5027621;28;19921;-68
2021/04/25 09:55:12;;;;;;;;;;;18.40;48.90;;;;;;5045087;28;19916;-67
2021/04/25 09:57:37;;;;;;;;;;;18.40;48.80;;;;;;5045698;28;19913;-68
2021/04/25 10:00:03;;;;;;;;;;;18.40;48.70;;;;;;5044223;28;19923;-68
2021/04/25 10:02:29;;;;;;;;;;;18.40;48.10;;;;;;5044209;28;20306;-68
2021/04/25 10:04:54;;;;;;;;;;;18.40;47.70;;;;;;5043181;28;19920;-67
2021/04/25 10:07:20;;;;;;;;;;;18.40;47.50;;;;;;5026544;28;20439;-69
2021/04/25 10:09:45;;;;;;;;;;;18.40;47.30;;;;;;5044691;28;19921;-69
2021/04/25 10:12:11;;;;;;;;;;;18.40;47.30;;;;;;5026733;28;19921;-68
2021/04/25 10:14:36;;;;;;;;;;;18.40;47.40;;;;;;5043686;28;19917;-69
2021/04/25 10:17:02;;;;;;;;;;;18.40;47.40;;;;;;5043604;28;19967;-68
2021/04/25 10:19:27;;;;;;;;;;;18.40;47.50;;;;;;5044069;28;19917;-69
2021/04/25 10:21:53;;;;;;;;;;;18.30;47.40;;;;;;5044401;28;19921;-69
2021/04/25 10:24:20;;;;;;;;;;;18.40;47.50;;;;;;5044707;28;19975;-68
2021/04/25 10:26:48;;;;;;;;;;;18.40;47.50;;;;;;5044460;28;19917;-68
2021/04/25 10:29:15;;;;;;;;;;;18.30;47.50;;;;;;5044420;28;19921;-68
2021/04/25 10:31:40;;;;;;;;;;;18.30;47.50;;;;;;5027098;28;19921;-68
2021/04/25 10:34:06;;;;;;;;;;;18.30;47.50;;;;;;5044379;28;20448;-69
2021/04/25 10:36:43;;;;;;;;;;;18.30;47.50;;;;;;5045562;28;19917;-68
2021/04/25 10:39:28;;;;;;;;;;;18.30;47.40;;;;;;5037493;28;20004;-66
2021/04/25 10:42:13;;;;;;;;;;;18.30;47.40;;;;;;5039067;28;19917;-69
2021/04/25 10:45:04;;;;;;;;;;;18.40;47.30;;;;;;5046461;28;19928;-69
2021/04/25 10:47:32;;;;;;;;;;;18.30;47.20;;;;;;5041087;28;19917;-68
2021/04/25 10:50:01;;;;;;;;;;;18.30;47.20;;;;;;5048096;28;19917;-68
2021/04/25 10:52:33;;;;;;;;;;;18.30;47.20;;;;;;5027363;28;20395;-67
2021/04/25 10:55:10;;;;;;;;;;;18.30;47.20;;;;;;5047886;28;19924;-68
2021/04/25 10:57:54;;;;;;;;;;;18.30;47.20;;;;;;5049572;28;19916;-68
2021/04/25 11:00:39;;;;;;;;;;;18.30;47.20;;;;;;5046358;28;20291;-68
2021/04/25 11:03:11;;;;;;;;;;;18.30;47.20;;;;;;5043613;28;19921;-69
2021/04/25 11:05:40;;;;;;;;;;;18.30;47.20;;;;;;5044023;28;19917;-68
2021/04/25 11:08:06;;;;;;;;;;;18.30;47.20;;;;;;5042956;28;19916;-69
2021/04/25 11:10:51;;;;;;;;;;;18.30;47.00;;;;;;5043047;28;19923;-69
2021/04/25 11:13:34;;;;;;;;;;;18.30;46.90;;;;;;5042662;28;19925;-68
2021/04/25 11:16:01;;;;;;;;;;;18.30;46.80;;;;;;5042913;28;19917;-70
2021/04/25 11:18:39;;;;;;;;;;;18.30;46.80;;;;;;5043009;28;19916;-68
2021/04/25 11:21:24;;;;;;;;;;;18.30;46.70;;;;;;5042787;28;19920;-69
2021/04/25 11:23:49;;;;;;;;;;;18.30;46.70;;;;;;5042978;28;19921;-69
2021/04/25 11:26:34;;;;;;;;;;;18.20;46.50;;;;;;5042868;28;19917;-68
2021/04/25 11:29:01;;;;;;;;;;;18.30;46.50;;;;;;5037307;28;19995;-70
2021/04/25 11:31:45;;;;;;;;;;;18.30;46.50;;;;;;5042985;28;20401;-67
2021/04/25 11:34:22;;;;;;;;;;;18.20;46.50;;;;;;5042502;28;20793;-68
2021/04/25 11:36:48;;;;;;;;;;;18.20;46.40;;;;;;5041116;28;20565;-69
2021/04/25 11:39:15;;;;;;;;;;;18.20;46.40;;;;;;5042874;28;19967;-67
2021/04/25 11:41:42;;;;;;;;;;;18.20;46.60;;;;;;5024858;28;19917;-68
2021/04/25 11:44:07;;;;;;;;;;;18.20;46.70;;;;;;5023733;28;19924;-68
2021/04/25 11:46:34;;;;;;;;;;;18.20;46.90;;;;;;5043106;28;19917;-67
2021/04/25 11:49:00;;;;;;;;;;;18.20;47.00;;;;;;5042284;28;19948;-68
2021/04/25 11:51:26;;;;;;;;;;;18.20;47.10;;;;;;5043338;28;19960;-67
2021/04/25 11:53:52;;;;;;;;;;;18.20;47.60;;;;;;5042277;28;20399;-67
2021/04/25 11:56:24;;;;;;;;;;;18.20;47.80;;;;;;5042085;28;19916;-68
2021/04/25 11:58:49;;;;;;;;;;;18.20;48.30;;;;;;5041896;28;19959;-67
2021/04/25 12:01:24;;;;;;;;;;;18.20;48.50;;;;;;5042902;28;20295;-67
2021/04/25 12:03:49;;;;;;;;;;;18.20;48.90;;;;;;5042325;28;19925;-70
2021/04/25 12:06:15;;;;;;;;;;;18.20;49.40;;;;;;5042895;28;20002;-68
2021/04/25 12:08:50;;;;;;;;;;;18.20;49.70;;;;;;5042383;28;19929;-69
2021/04/25 12:11:25;;;;;;;;;;;18.20;49.50;;;;;;5042371;28;20019;-68
2021/04/25 12:13:51;;;;;;;;;;;18.20;49.30;;;;;;5041876;28;19924;-67
2021/04/25 12:16:17;;;;;;;;;;;18.20;48.90;;;;;;5040759;28;19920;-66
2021/04/25 12:18:43;;;;;;;;;;;18.20;48.80;;;;;;5040655;28;20340;-67
2021/04/25 12:21:13;;;;;;;;;;;18.20;48.50;;;;;;5040978;28;19917;-68
2021/04/25 12:23:48;;;;;;;;;;;18.20;48.60;;;;;;5041207;28;19966;-69
2021/04/25 12:26:14;;;;;;;;;;;18.20;48.70;;;;;;5041036;28;19920;-67
2021/04/25 12:28:41;;;;;;;;;;;18.20;48.60;;;;;;5040395;28;20626;-67
2021/04/25 12:31:07;;;;;;;;;;;18.20;48.50;;;;;;5048050;28;20001;-69
2021/04/25 12:33:37;;;;;;;;;;;18.20;48.30;;;;;;5053139;28;19925;-68
2021/04/25 12:36:04;;;;;;;;;;;18.20;48.00;;;;;;5042420;28;20348;-64
2021/04/25 12:38:30;;;;;;;;;;;18.10;47.80;;;;;;5042450;28;19927;-72
2021/04/25 12:40:56;;;;;;;;;;;18.20;47.60;;;;;;5046417;28;20009;-68
2021/04/25 12:43:22;;;;;;;;;;;18.10;47.50;;;;;;5045042;28;19921;-68
2021/04/25 12:45:48;;;;;;;;;;;18.10;47.30;;;;;;5046643;28;20037;-69
2021/04/25 12:48:26;;;;;;;;;;;18.10;47.20;;;;;;5045750;28;19917;-67
2021/04/25 12:51:08;;;;;;;;;;;18.10;47.00;;;;;;5045726;28;19921;-67
2021/04/25 12:53:34;;;;;;;;;;;18.10;46.90;;;;;;5039687;28;19921;-66
2021/04/25 12:56:18;;;;;;;;;;;18.10;46.60;;;;;;5046271;28;20022;-68
2021/04/25 12:58:57;;;;;;;;;;;18.10;46.50;;;;;;5039672;28;19917;-69
2021/04/25 13:01:22;;;;;;;;;;;18.10;46.20;;;;;;5043543;28;19978;-65
2021/04/25 13:03:49;;;;;;;;;;;18.10;46.10;;;;;;5045815;28;20440;-68
2021/04/25 13:06:27;;;;;;;;;;;18.10;46.10;;;;;;5045763;28;19966;-65
2021/04/25 13:08:52;;;;;;;;;;;18.10;45.90;;;;;;5045721;28;19916;-66
2021/04/25 13:11:18;;;;;;;;;;;18.10;45.90;;;;;;5046767;28;19917;-66
2021/04/25 13:13:43;;;;;;;;;;;18.10;46.00;;;;;;5046301;28;19932;-67
2021/04/25 13:16:12;;;;;;;;;;;18.10;46.00;;;;;;5046968;28;19921;-67
2021/04/25 13:18:38;;;;;;;;;;;18.10;46.10;;;;;;5046179;28;19920;-66
2021/04/25 13:21:05;;;;;;;;;;;18.10;46.10;;;;;;5048185;28;19944;-67
2021/04/25 13:23:30;;;;;;;;;;;18.10;46.00;;;;;;5047760;28;19921;-69
2021/04/25 13:25:57;;;;;;;;;;;18.10;46.10;;;;;;5047486;28;19924;-66
2021/04/25 13:28:23;;;;;;;;;;;18.00;46.00;;;;;;5046549;28;19923;-67
2021/04/25 13:30:49;;;;;;;;;;;18.10;46.10;;;;;;5046882;28;19917;-68
2021/04/25 13:33:18;;;;;;;;;;;18.10;46.00;;;;;;5046365;28;19982;-68
2021/04/25 13:35:43;;;;;;;;;;;18.00;46.50;;;;;;5048853;28;19983;-70
2021/04/25 13:38:09;;;;;;;;;;;18.00;47.00;;;;;;5045330;28;20522;-67
2021/04/25 13:40:35;;;;;;;;;;;18.00;47.30;;;;;;5028275;28;19925;-68
2021/04/25 13:43:00;;;;;;;;;;;18.00;47.80;;;;;;5044226;28;20391;-68
2021/04/25 13:45:26;;;;;;;;;;;17.90;48.40;;;;;;5038730;28;19921;-68
2021/04/25 13:47:52;;;;;;;;;;;17.80;48.90;;;;;;5034748;28;19924;-68
2021/04/25 13:50:17;;;;;;;;;;;17.80;49.20;;;;;;5042996;28;19917;-68
2021/04/25 13:52:42;;;;;;;;;;;17.80;49.50;;;;;;5044227;28;19978;-68
2021/04/25 13:55:08;;;;;;;;;;;17.80;49.70;;;;;;5036132;28;19924;-67
2021/04/25 13:57:33;;;;;;;;;;;17.80;49.90;;;;;;5041036;28;19952;-68
2021/04/25 14:00:01;;;;;;;;;;;17.80;50.00;;;;;;5027393;28;20450;-68
2021/04/25 14:02:26;;;;;;;;;;;17.80;50.20;;;;;;5042956;28;19921;-68
2021/04/25 14:04:51;;;;;;;;;;;17.80;50.10;;;;;;5038618;28;20291;-64
2021/04/25 14:07:17;;;;;;;;;;;17.80;50.00;;;;;;5033460;28;19975;-67
2021/04/25 14:09:42;;;;;;;;;;;17.80;50.10;;;;;;5034906;28;19917;-67
2021/04/25 14:12:08;;;;;;;;;;;17.80;50.10;;;;;;5039611;28;20584;-68
2021/04/25 14:14:33;;;;;;;;;;;17.90;50.10;;;;;;5039514;28;19959;-68